Time;durP1;ratioP1;P1;durP2;ratioP2;P2;SDS_P1;SDS_P2;PMS_P1;PMS_P2;Temp;Humidity;BMP_temperature;BMP_pressure;BME280_temperature;BME280_humidity;BME280_pressure;Samples;Min_cycle;Max_cycle;Signal;HPM_P1;HPM_P2
2024/03/03 00:01:20;;;;;;;8.07;6.28;;;9.20;99.90;;;;;;7373427;19;20018;-73
2024/03/03 00:03:46;;;;;;;7.68;5.88;;;9.20;99.90;;;;;;7373684;19;20114;-75
2024/03/03 00:06:33;;;;;;;8.60;5.85;;;9.20;99.90;;;;;;7368625;19;20068;-72
2024/03/03 00:08:59;;;;;;;7.28;5.95;;;9.20;99.90;;;;;;7374675;19;20518;-73
2024/03/03 00:11:25;;;;;;;9.25;6.07;;;9.30;99.90;;;;;;7371470;19;20014;-72
2024/03/03 00:13:51;;;;;;;9.02;6.20;;;9.20;99.90;;;;;;7370304;19;20451;-73
2024/03/03 00:16:18;;;;;;;9.40;5.97;;;9.30;99.90;;;;;;7376803;19;20025;-75
2024/03/03 00:19:06;;;;;;;9.52;6.47;;;9.30;99.90;;;;;;7369936;19;20030;-74
2024/03/03 00:21:32;;;;;;;8.50;6.85;;;9.30;99.90;;;;;;7370310;19;20948;-71
2024/03/03 00:23:58;;;;;;;7.93;6.15;;;9.30;99.90;;;;;;7366746;19;20029;-71
2024/03/03 00:26:44;;;;;;;7.10;5.20;;;9.40;99.90;;;;;;7364249;19;20022;-74
2024/03/03 00:29:10;;;;;;;9.02;5.90;;;9.30;99.90;;;;;;7368471;19;20035;-74
2024/03/03 00:31:43;;;;;;;8.82;6.07;;;9.40;99.90;;;;;;7364099;19;20045;-71
2024/03/03 00:34:18;;;;;;;8.20;5.78;;;9.40;99.90;;;;;;7368195;19;20056;-71
2024/03/03 00:36:45;;;;;;;7.95;6.22;;;9.50;99.90;;;;;;7366664;19;20077;-72
2024/03/03 00:39:12;;;;;;;7.82;5.90;;;9.60;99.90;;;;;;7365884;19;20971;-75
2024/03/03 00:41:38;;;;;;;7.45;6.05;;;9.60;99.90;;;;;;7368283;19;20030;-71
2024/03/03 00:44:05;;;;;;;8.55;6.47;;;9.60;99.90;;;;;;7374664;19;20010;-74
2024/03/03 00:46:31;;;;;;;8.05;6.03;;;9.70;99.90;;;;;;7377719;19;20014;-72
2024/03/03 00:48:57;;;;;;;9.82;7.07;;;9.70;99.90;;;;;;7373957;19;21030;-74
2024/03/03 00:51:23;;;;;;;10.15;7.10;;;9.70;99.90;;;;;;7378772;19;20073;-71
2024/03/03 00:54:09;;;;;;;8.02;6.72;;;9.70;99.90;;;;;;7371722;19;20022;-73
2024/03/03 00:56:56;;;;;;;9.07;6.45;;;9.70;99.90;;;;;;7378344;19;20015;-72
2024/03/03 00:59:45;;;;;;;9.05;7.10;;;9.70;99.90;;;;;;7372416;19;20014;-74
2024/03/03 01:02:11;;;;;;;8.23;6.50;;;9.70;99.90;;;;;;7372656;19;20022;-74
2024/03/03 01:04:38;;;;;;;13.45;7.75;;;9.80;99.90;;;;;;7372322;19;20053;-74
2024/03/03 01:07:05;;;;;;;9.10;7.00;;;9.70;99.90;;;;;;7374938;19;20022;-74
2024/03/03 01:09:31;;;;;;;8.10;6.90;;;9.70;99.90;;;;;;7376514;19;20666;-74
2024/03/03 01:12:01;;;;;;;9.82;6.88;;;9.70;99.90;;;;;;7375132;19;20010;-74
2024/03/03 01:14:30;;;;;;;9.38;7.13;;;9.70;99.90;;;;;;7374062;19;20019;-75
2024/03/03 01:16:56;;;;;;;8.30;6.80;;;9.80;99.90;;;;;;7375998;19;20116;-72
2024/03/03 01:19:22;;;;;;;10.18;7.43;;;9.80;99.90;;;;;;7376130;19;20051;-74
2024/03/03 01:21:49;;;;;;;9.88;7.82;;;9.70;99.90;;;;;;7379409;19;20022;-72
2024/03/03 01:24:37;;;;;;;9.23;6.78;;;9.70;99.90;;;;;;7372008;19;20045;-72
2024/03/03 01:27:03;;;;;;;10.15;7.45;;;9.80;99.90;;;;;;7376163;19;20014;-72
2024/03/03 01:29:29;;;;;;;12.63;8.20;;;9.80;99.90;;;;;;7375274;19;20051;-75
2024/03/03 01:31:55;;;;;;;9.18;7.88;;;9.80;99.90;;;;;;7369643;19;20025;-72
2024/03/03 01:34:28;;;;;;;10.73;8.23;;;9.80;99.90;;;;;;7374785;19;20798;-72
2024/03/03 01:36:55;;;;;;;11.38;7.82;;;9.70;99.90;;;;;;7372961;19;20537;-74
2024/03/03 01:39:21;;;;;;;11.38;8.15;;;9.70;99.90;;;;;;7379105;19;20402;-72
2024/03/03 01:42:07;;;;;;;9.93;7.70;;;9.70;99.90;;;;;;7379702;19;20018;-72
2024/03/03 01:44:37;;;;;;;10.40;8.50;;;9.70;99.90;;;;;;7377063;19;20093;-74
2024/03/03 01:47:04;;;;;;;9.95;7.57;;;9.70;99.90;;;;;;7377243;19;20655;-72
2024/03/03 01:49:47;;;;;;;12.45;7.65;;;9.70;99.90;;;;;;7377160;19;20027;-72
2024/03/03 01:52:17;;;;;;;11.13;8.27;;;9.70;99.90;;;;;;7376684;19;20022;-74
2024/03/03 01:54:44;;;;;;;11.32;7.90;;;9.60;99.90;;;;;;7372693;19;20018;-74
2024/03/03 01:57:31;;;;;;;10.38;8.18;;;9.70;99.90;;;;;;7370241;19;20041;-74
2024/03/03 02:00:18;;;;;;;10.48;8.43;;;9.70;99.90;;;;;;7374055;19;20412;-74
2024/03/03 02:02:44;;;;;;;12.02;8.70;;;9.70;99.90;;;;;;7373367;19;20047;-74
2024/03/03 02:05:31;;;;;;;12.57;8.27;;;9.70;99.90;;;;;;7374436;19;20018;-72
2024/03/03 02:07:59;;;;;;;10.68;8.32;;;9.70;99.90;;;;;;7378223;19;20028;-72
2024/03/03 02:10:45;;;;;;;10.80;8.25;;;9.70;99.90;;;;;;7377340;19;20018;-73
2024/03/03 02:13:11;;;;;;;12.57;8.95;;;9.70;99.90;;;;;;7376458;19;20026;-74
2024/03/03 02:15:41;;;;;;;11.90;8.25;;;9.70;99.90;;;;;;7377242;19;20025;-72
2024/03/03 02:18:07;;;;;;;10.70;8.18;;;9.70;99.90;;;;;;7378692;19;20070;-72
2024/03/03 02:20:33;;;;;;;11.52;8.93;;;9.70;99.90;;;;;;7375002;19;20023;-72
2024/03/03 02:23:00;;;;;;;11.02;8.50;;;9.70;99.90;;;;;;7375863;19;20628;-72
2024/03/03 02:25:46;;;;;;;11.48;8.63;;;9.60;99.90;;;;;;7372560;19;20026;-73
2024/03/03 02:28:14;;;;;;;12.23;8.23;;;9.60;99.90;;;;;;7380425;19;20019;-72
2024/03/03 02:30:40;;;;;;;13.60;8.98;;;9.60;99.90;;;;;;7376742;19;20025;-74
2024/03/03 02:33:26;;;;;;;10.40;8.30;;;9.70;99.90;;;;;;7366698;19;20065;-74
2024/03/03 02:35:52;;;;;;;11.75;9.20;;;9.60;99.90;;;;;;7373631;19;20129;-72
2024/03/03 02:38:19;;;;;;;11.85;9.38;;;9.60;99.90;;;;;;7379995;19;20438;-72
2024/03/03 02:40:52;;;;;;;11.90;8.52;;;9.60;99.90;;;;;;7372879;19;20041;-74
2024/03/03 02:43:18;;;;;;;13.18;9.63;;;9.60;99.90;;;;;;7373854;19;21523;-74
2024/03/03 02:45:44;;;;;;;12.40;8.43;;;9.70;99.90;;;;;;7368852;19;20022;-74
2024/03/03 02:48:11;;;;;;;12.43;9.48;;;9.70;99.90;;;;;;7372834;19;20055;-74
2024/03/03 02:50:37;;;;;;;11.90;8.65;;;9.60;99.90;;;;;;7372653;19;20014;-74
2024/03/03 02:53:03;;;;;;;11.77;9.32;;;9.60;99.90;;;;;;7375135;19;20027;-73
2024/03/03 02:55:32;;;;;;;13.10;9.38;;;9.60;99.90;;;;;;7377061;19;20058;-74
2024/03/03 02:57:59;;;;;;;12.15;10.15;;;9.60;99.90;;;;;;7372295;19;20048;-73
2024/03/03 03:00:45;;;;;;;11.90;10.02;;;9.60;99.90;;;;;;7373466;19;20026;-73
2024/03/03 03:03:12;;;;;;;13.60;10.70;;;9.60;99.90;;;;;;7368809;19;20039;-73
2024/03/03 03:05:38;;;;;;;14.70;10.40;;;9.70;99.90;;;;;;7372702;19;20482;-73
2024/03/03 03:08:24;;;;;;;13.82;9.85;;;9.60;99.90;;;;;;7369247;19;20093;-73
2024/03/03 03:10:51;;;;;;;11.05;9.80;;;9.60;99.90;;;;;;7373633;19;20030;-73
2024/03/03 03:13:20;;;;;;;11.98;9.10;;;9.60;99.90;;;;;;7370662;19;20022;-74
2024/03/03 03:15:46;;;;;;;12.85;10.27;;;9.60;99.90;;;;;;7373987;19;20026;-74
2024/03/03 03:18:12;;;;;;;12.55;9.85;;;9.60;99.90;;;;;;7369511;19;20462;-74
2024/03/03 03:20:38;;;;;;;11.23;9.52;;;9.50;99.90;;;;;;7367661;19;20071;-74
2024/03/03 03:23:05;;;;;;;12.38;9.95;;;9.50;99.90;;;;;;7366103;19;20018;-72
2024/03/03 03:25:31;;;;;;;13.13;11.38;;;9.50;99.90;;;;;;7371118;19;20874;-74
2024/03/03 03:28:17;;;;;;;12.68;10.40;;;9.40;99.90;;;;;;7371748;19;20022;-73
2024/03/03 03:30:43;;;;;;;13.13;11.68;;;9.30;99.90;;;;;;7373610;19;20034;-73
2024/03/03 03:33:09;;;;;;;14.35;11.68;;;9.20;99.90;;;;;;7378350;19;20930;-73
2024/03/03 03:35:55;;;;;;;14.10;10.88;;;9.20;99.90;;;;;;7377033;19;20026;-72
2024/03/03 03:38:23;;;;;;;14.18;10.95;;;9.10;99.90;;;;;;7372772;19;20038;-74
2024/03/03 03:40:49;;;;;;;15.70;11.75;;;9.00;99.90;;;;;;7369418;19;20033;-74
2024/03/03 03:43:22;;;;;;;14.13;11.40;;;9.00;99.90;;;;;;7375209;19;20067;-73
2024/03/03 03:45:48;;;;;;;13.02;10.13;;;8.90;99.90;;;;;;7372574;19;20014;-72
2024/03/03 03:48:14;;;;;;;16.67;11.45;;;8.80;99.90;;;;;;7375140;19;20018;-74
2024/03/03 03:50:40;;;;;;;14.32;11.77;;;8.80;99.90;;;;;;7367046;19;20045;-72
2024/03/03 03:53:08;;;;;;;14.18;10.93;;;8.70;99.90;;;;;;7376481;19;20018;-73
2024/03/03 03:55:34;;;;;;;14.55;11.30;;;8.60;99.90;;;;;;7373830;19;20041;-72
2024/03/03 03:58:00;;;;;;;15.93;12.30;;;8.60;99.90;;;;;;7373060;19;20049;-73
2024/03/03 04:00:27;;;;;;;14.85;11.57;;;8.50;99.90;;;;;;7371194;19;20039;-75
2024/03/03 04:03:13;;;;;;;14.25;11.43;;;8.50;99.90;;;;;;7372322;19;20053;-75
2024/03/03 04:05:39;;;;;;;14.80;12.52;;;8.50;99.90;;;;;;7363976;19;20110;-75
2024/03/03 04:08:06;;;;;;;13.25;11.43;;;8.40;99.90;;;;;;7377592;19;20018;-73
2024/03/03 04:10:52;;;;;;;15.35;12.18;;;8.30;99.90;;;;;;7370839;19;20787;-73
2024/03/03 04:13:18;;;;;;;14.77;11.88;;;8.30;99.90;;;;;;7374102;19;20022;-73
2024/03/03 04:15:44;;;;;;;14.27;11.95;;;8.30;99.90;;;;;;7366073;19;20018;-72
2024/03/03 04:18:10;;;;;;;16.25;12.43;;;8.30;99.90;;;;;;7370487;19;20025;-73
2024/03/03 04:20:36;;;;;;;15.30;12.05;;;8.20;99.90;;;;;;7368178;19;21201;-73
2024/03/03 04:23:03;;;;;;;17.27;12.85;;;8.20;99.90;;;;;;7372722;19;20030;-73
2024/03/03 04:25:29;;;;;;;14.55;12.35;;;8.20;99.90;;;;;;7372041;19;20018;-73
2024/03/03 04:27:55;;;;;;;14.93;11.48;;;8.20;99.90;;;;;;7371851;19;20019;-73
2024/03/03 04:30:21;;;;;;;15.05;12.02;;;8.10;99.90;;;;;;7374568;19;20018;-75
2024/03/03 04:33:08;;;;;;;15.50;12.75;;;8.10;99.90;;;;;;7372216;19;20629;-74
2024/03/03 04:35:37;;;;;;;15.68;12.45;;;8.10;99.90;;;;;;7367355;19;20027;-74
2024/03/03 04:38:06;;;;;;;16.38;11.25;;;8.00;99.90;;;;;;7370759;19;20029;-75
2024/03/03 04:40:53;;;;;;;14.55;11.27;;;8.00;99.90;;;;;;7364109;19;20723;-74
2024/03/03 04:43:19;;;;;;;13.40;10.13;;;8.00;99.90;;;;;;7371574;19;20014;-72
2024/03/03 04:45:46;;;;;;;15.48;11.82;;;8.00;99.90;;;;;;7368025;19;20018;-73
2024/03/03 04:48:13;;;;;;;15.23;12.25;;;7.90;99.90;;;;;;7374075;19;20033;-73
2024/03/03 04:50:39;;;;;;;14.55;11.80;;;7.90;99.90;;;;;;7371758;19;20022;-73
2024/03/03 04:53:05;;;;;;;14.20;10.77;;;7.90;99.90;;;;;;7375165;19;20359;-73
2024/03/03 04:55:31;;;;;;;15.23;11.75;;;7.80;99.90;;;;;;7376031;19;20014;-73
2024/03/03 04:57:58;;;;;;;14.93;12.00;;;7.80;99.90;;;;;;7375693;19;20038;-73
2024/03/03 05:00:44;;;;;;;17.20;11.65;;;7.80;99.90;;;;;;7371808;19;20025;-73
2024/03/03 05:03:11;;;;;;;15.38;11.90;;;7.70;99.90;;;;;;7378357;19;20045;-73
2024/03/03 05:05:37;;;;;;;15.50;11.18;;;7.70;99.90;;;;;;7372594;19;20093;-75
2024/03/03 05:08:23;;;;;;;17.38;12.18;;;7.60;99.90;;;;;;7371567;19;20023;-75
2024/03/03 05:10:50;;;;;;;15.23;12.38;;;7.60;99.90;;;;;;7367140;19;20022;-73
2024/03/03 05:13:16;;;;;;;17.58;11.93;;;7.60;99.90;;;;;;7378643;19;20023;-75
2024/03/03 05:15:43;;;;;;;15.35;11.45;;;7.50;99.90;;;;;;7364103;19;20015;-76
2024/03/03 05:18:09;;;;;;;15.13;10.85;;;7.50;99.90;;;;;;7376054;19;20022;-74
2024/03/03 05:20:55;;;;;;;13.48;10.20;;;7.50;99.90;;;;;;7371128;19;20019;-73
2024/03/03 05:23:22;;;;;;;13.63;11.52;;;7.40;99.90;;;;;;7370402;19;20014;-74
2024/03/03 05:25:48;;;;;;;15.70;10.93;;;7.50;99.90;;;;;;7368915;19;20644;-74
2024/03/03 05:28:37;;;;;;;15.93;12.55;;;7.40;99.90;;;;;;7370184;19;20591;-73
2024/03/03 05:31:05;;;;;;;15.70;11.60;;;7.40;99.90;;;;;;7378438;19;20018;-75
2024/03/03 05:33:32;;;;;;;13.98;11.75;;;7.40;99.90;;;;;;7379306;19;20119;-75
2024/03/03 05:35:59;;;;;;;15.35;11.93;;;7.40;99.90;;;;;;7373772;19;20057;-75
2024/03/03 05:38:25;;;;;;;14.80;11.68;;;7.40;99.90;;;;;;7378904;19;20015;-75
2024/03/03 05:41:14;;;;;;;15.43;11.35;;;7.40;99.90;;;;;;7378699;19;20558;-73
2024/03/03 05:43:41;;;;;;;15.00;11.60;;;7.40;99.90;;;;;;7384182;19;20023;-74
2024/03/03 05:46:07;;;;;;;14.38;11.05;;;7.40;99.90;;;;;;7378867;19;20022;-73
2024/03/03 05:48:53;;;;;;;14.55;11.45;;;7.30;99.90;;;;;;7379914;19;20029;-73
2024/03/03 05:51:20;;;;;;;18.33;13.30;;;7.30;99.90;;;;;;7380866;19;20781;-75
2024/03/03 05:53:46;;;;;;;15.23;11.50;;;7.40;99.90;;;;;;7376881;19;20101;-76
2024/03/03 05:56:32;;;;;;;13.77;11.68;;;7.20;99.90;;;;;;7377042;19;20053;-75
2024/03/03 05:58:58;;;;;;;15.18;11.93;;;7.20;99.90;;;;;;7376591;19;20041;-73
2024/03/03 06:01:24;;;;;;;15.40;11.57;;;7.20;99.90;;;;;;7378445;19;20022;-75
2024/03/03 06:03:51;;;;;;;13.13;11.00;;;7.10;99.90;;;;;;7372729;19;20038;-75
2024/03/03 06:06:17;;;;;;;15.20;11.93;;;7.10;99.90;;;;;;7372292;19;20019;-75
2024/03/03 06:08:45;;;;;;;16.55;12.10;;;7.10;99.90;;;;;;7375949;19;20024;-74
2024/03/03 06:11:11;;;;;;;16.23;11.48;;;7.10;99.90;;;;;;7374682;19;20022;-75
2024/03/03 06:13:37;;;;;;;14.38;11.15;;;7.10;99.90;;;;;;7371514;19;20018;-75
2024/03/03 06:16:23;;;;;;;15.63;12.55;;;7.10;99.90;;;;;;7373008;19;20098;-75
2024/03/03 06:18:50;;;;;;;15.75;11.88;;;7.20;99.90;;;;;;7373960;19;20025;-74
2024/03/03 06:21:16;;;;;;;17.60;14.48;;;7.20;99.90;;;;;;7381877;19;20022;-75
2024/03/03 06:24:03;;;;;;;13.50;10.10;;;7.20;99.90;;;;;;7367921;19;20018;-76
2024/03/03 06:26:30;;;;;;;14.40;12.40;;;7.20;99.90;;;;;;7378396;19;20478;-73
2024/03/03 06:28:56;;;;;;;14.75;10.93;;;7.20;99.90;;;;;;7372900;19;20025;-73
2024/03/03 06:31:36;;;;;;;18.40;12.80;;;7.30;99.90;;;;;;7377065;19;20018;-68
2024/03/03 06:34:02;;;;;;;16.42;11.57;;;7.30;99.90;;;;;;7377822;19;20023;-74
2024/03/03 06:36:28;;;;;;;17.38;12.70;;;7.40;99.90;;;;;;7374597;19;20023;-74
2024/03/03 06:38:56;;;;;;;15.98;13.10;;;7.40;99.90;;;;;;7375958;19;20459;-75
2024/03/03 06:41:23;;;;;;;16.67;12.55;;;7.50;99.90;;;;;;7368777;19;20014;-75
2024/03/03 06:44:11;;;;;;;16.38;13.48;;;7.50;99.90;;;;;;7383318;19;20048;-74
2024/03/03 06:46:43;;;;;;;15.88;13.48;;;7.50;99.90;;;;;;7380996;19;20011;-74
2024/03/03 06:49:09;;;;;;;16.75;11.45;;;7.60;99.90;;;;;;7381399;19;20555;-75
2024/03/03 06:51:55;;;;;;;16.95;12.95;;;7.60;99.90;;;;;;7377506;19;20765;-74
2024/03/03 06:54:22;;;;;;;16.17;11.98;;;7.70;99.90;;;;;;7384986;19;20029;-76
2024/03/03 06:56:48;;;;;;;17.30;13.10;;;7.70;99.90;;;;;;7376580;19;20022;-78
2024/03/03 06:59:14;;;;;;;15.52;12.95;;;7.80;99.90;;;;;;7381007;19;20116;-75
2024/03/03 07:01:41;;;;;;;17.02;13.00;;;7.90;99.90;;;;;;7378566;19;20033;-74
2024/03/03 07:04:27;;;;;;;16.00;10.80;;;7.90;99.90;;;;;;7382495;19;20873;-75
2024/03/03 07:06:57;;;;;;;20.17;13.35;;;8.00;99.90;;;;;;7376155;19;20031;-75
2024/03/03 07:09:24;;;;;;;18.52;13.45;;;8.00;99.90;;;;;;7382539;19;20017;-75
2024/03/03 07:12:10;;;;;;;17.75;13.15;;;8.10;99.90;;;;;;7382197;19;20022;-74
2024/03/03 07:14:42;;;;;;;18.20;14.27;;;8.20;99.90;;;;;;7377928;19;20903;-73
2024/03/03 07:17:08;;;;;;;17.17;12.68;;;8.30;99.90;;;;;;7378287;19;20014;-75
2024/03/03 07:19:34;;;;;;;17.08;12.63;;;8.40;99.90;;;;;;7377221;19;20474;-69
2024/03/03 07:22:01;;;;;;;18.27;14.55;;;8.50;99.90;;;;;;7374041;19;20678;-70
2024/03/03 07:24:47;;;;;;;15.35;13.40;;;8.60;99.90;;;;;;7379922;19;20771;-74
2024/03/03 07:27:13;;;;;;;19.45;14.30;;;8.70;99.90;;;;;;7381840;19;20380;-74
2024/03/03 07:29:44;;;;;;;17.70;13.63;;;8.70;99.90;;;;;;7377061;19;20021;-73
2024/03/03 07:32:31;;;;;;;14.40;12.88;;;8.70;99.90;;;;;;7381633;19;20086;-74
2024/03/03 07:34:57;;;;;;;16.40;13.10;;;8.70;99.90;;;;;;7369117;19;20607;-74
2024/03/03 07:37:24;;;;;;;18.00;13.98;;;8.70;99.90;;;;;;7374414;19;20037;-74
2024/03/03 07:39:50;;;;;;;17.25;13.68;;;8.70;99.90;;;;;;7369846;19;20509;-74
2024/03/03 07:42:17;;;;;;;17.42;13.27;;;8.70;99.90;;;;;;7370377;19;20018;-73
2024/03/03 07:44:43;;;;;;;17.08;13.75;;;8.70;99.90;;;;;;7373173;19;20014;-69
2024/03/03 07:47:09;;;;;;;16.95;13.48;;;8.70;99.90;;;;;;7373644;19;20022;-72
2024/03/03 07:49:35;;;;;;;16.77;13.90;;;8.70;99.90;;;;;;7377198;19;20042;-74
2024/03/03 07:52:02;;;;;;;18.52;13.18;;;8.70;99.90;;;;;;7379854;19;20077;-75
2024/03/03 07:54:29;;;;;;;17.02;14.63;;;8.80;99.90;;;;;;7371822;19;20113;-72
2024/03/03 07:56:55;;;;;;;17.40;14.25;;;8.70;99.90;;;;;;7372397;19;20046;-73
2024/03/03 07:59:21;;;;;;;18.20;14.23;;;8.80;99.90;;;;;;7376082;19;20018;-74
2024/03/03 08:01:47;;;;;;;20.38;13.80;;;8.80;99.90;;;;;;7370295;19;20057;-73
2024/03/03 08:04:16;;;;;;;16.60;13.27;;;8.70;99.90;;;;;;7366536;19;20582;-73
2024/03/03 08:07:03;;;;;;;17.45;13.90;;;8.80;99.90;;;;;;7378722;19;20377;-73
2024/03/03 08:09:30;;;;;;;16.77;14.27;;;8.80;99.90;;;;;;7377453;19;20015;-74
2024/03/03 08:11:56;;;;;;;16.48;13.93;;;8.90;99.90;;;;;;7370814;19;20010;-74
2024/03/03 08:14:41;;;;;;;18.38;13.48;;;9.00;99.90;;;;;;7372612;19;20820;-74
2024/03/03 08:17:07;;;;;;;16.60;13.98;;;9.00;99.90;;;;;;7380016;19;20533;-74
2024/03/03 08:19:34;;;;;;;20.77;14.82;;;9.10;99.90;;;;;;7381143;19;20059;-73
2024/03/03 08:22:03;;;;;;;18.65;16.25;;;9.20;99.90;;;;;;7378869;19;20022;-72
2024/03/03 08:24:29;;;;;;;17.60;13.63;;;9.60;99.90;;;;;;7372587;19;20728;-73
2024/03/03 08:27:16;;;;;;;17.45;14.40;;;10.00;99.90;;;;;;7376476;19;20407;-72
2024/03/03 08:29:42;;;;;;;15.48;13.18;;;10.20;99.90;;;;;;7369302;19;20049;-72
2024/03/03 08:32:08;;;;;;;15.85;13.23;;;10.50;99.90;;;;;;7366562;19;20022;-72
2024/03/03 08:34:54;;;;;;;18.05;14.52;;;10.80;99.90;;;;;;7371513;19;20081;-72
2024/03/03 08:37:21;;;;;;;16.35;13.43;;;11.00;99.90;;;;;;7373643;19;20034;-72
2024/03/03 08:39:47;;;;;;;15.20;12.93;;;11.20;99.90;;;;;;7368600;19;20018;-73
2024/03/03 08:42:14;;;;;;;17.55;14.60;;;11.10;99.90;;;;;;7375524;19;20857;-71
2024/03/03 08:44:41;;;;;;;16.65;13.02;;;11.50;99.90;;;;;;7371418;19;20074;-72
2024/03/03 08:47:27;;;;;;;16.88;14.23;;;11.80;99.90;;;;;;7370369;19;20027;-72
2024/03/03 08:49:54;;;;;;;16.02;13.30;;;12.50;99.90;;;;;;7365713;19;20063;-71
2024/03/03 08:52:20;;;;;;;13.40;11.93;;;13.40;99.90;;;;;;7369115;19;20018;-71
2024/03/03 08:55:06;;;;;;;14.25;12.75;;;13.70;99.90;;;;;;7369359;19;20022;-71
2024/03/03 08:57:33;;;;;;;23.75;18.52;;;13.70;99.90;;;;;;7370164;19;20086;-71
2024/03/03 08:59:59;;;;;;;14.35;12.85;;;13.40;99.90;;;;;;7364557;19;20014;-71
2024/03/03 09:02:46;;;;;;;16.77;13.50;;;13.10;99.90;;;;;;7364813;19;20018;-69
2024/03/03 09:05:12;;;;;;;14.60;13.05;;;13.10;99.90;;;;;;7366895;19;20025;-69
2024/03/03 09:07:41;;;;;;;14.60;12.55;;;13.30;99.90;;;;;;7375764;19;20690;-70
2024/03/03 09:10:08;;;;;;;15.88;13.07;;;13.40;99.90;;;;;;7378000;19;20018;-68
2024/03/03 09:12:37;;;;;;;14.95;13.13;;;13.20;99.90;;;;;;7373776;19;20026;-73
2024/03/03 09:15:04;;;;;;;15.63;13.00;;;13.10;99.90;;;;;;7377409;19;20082;-67
2024/03/03 09:17:30;;;;;;;15.95;12.98;;;12.90;99.90;;;;;;7377176;19;20030;-68
2024/03/03 09:19:57;;;;;;;14.65;12.35;;;12.70;99.90;;;;;;7375787;19;20025;-69
2024/03/03 09:22:24;;;;;;;18.60;12.88;;;12.50;99.90;;;;;;7378243;19;20025;-69
2024/03/03 09:24:50;;;;;;;14.48;12.93;;;12.50;99.90;;;;;;7368823;19;20018;-68
2024/03/03 09:27:17;;;;;;;17.50;13.15;;;12.80;99.90;;;;;;7377789;19;20029;-68
2024/03/03 09:29:44;;;;;;;15.50;13.23;;;12.90;99.90;;;;;;7369758;19;20864;-68
2024/03/03 09:32:10;;;;;;;14.23;12.38;;;13.20;99.90;;;;;;7374353;19;20058;-69
2024/03/03 09:34:36;;;;;;;15.35;12.93;;;13.20;99.90;;;;;;7375834;19;20030;-68
2024/03/03 09:37:23;;;;;;;15.15;11.77;;;13.20;99.90;;;;;;7370377;19;20025;-70
2024/03/03 09:39:49;;;;;;;15.95;12.88;;;13.10;99.90;;;;;;7375223;19;20142;-70
2024/03/03 09:42:16;;;;;;;15.63;12.60;;;12.80;99.90;;;;;;7370603;19;20018;-66
2024/03/03 09:45:10;;;;;;;15.88;12.50;;;13.00;99.90;;;;;;7358558;19;20867;-68
2024/03/03 09:47:37;;;;;;;15.90;12.57;;;13.00;99.90;;;;;;7371645;19;20014;-67
2024/03/03 09:50:10;;;;;;;15.35;12.75;;;13.20;99.90;;;;;;7368650;19;20029;-67
2024/03/03 09:52:57;;;;;;;14.18;12.43;;;13.30;99.90;;;;;;7368067;19;20566;-67
2024/03/03 09:55:25;;;;;;;15.13;12.35;;;13.50;99.90;;;;;;7377111;19;20018;-72
2024/03/03 09:57:51;;;;;;;14.63;13.07;;;13.60;99.90;;;;;;7381938;19;20035;-71
2024/03/03 10:00:31;;;;;;;15.05;13.45;;;13.90;99.90;;;;;;7379522;19;20086;-70
2024/03/03 10:03:00;;;;;;;14.68;11.90;;;14.20;99.90;;;;;;7378862;19;20581;-70
2024/03/03 10:05:28;;;;;;;13.75;11.90;;;14.80;99.90;;;;;;7379429;19;20748;-70
2024/03/03 10:08:01;;;;;;;15.48;13.13;;;15.60;99.90;;;;;;7378380;19;20041;-70
2024/03/03 10:10:31;;;;;;;15.57;13.93;;;15.90;99.90;;;;;;7379369;19;20082;-70
2024/03/03 10:13:17;;;;;;;16.80;14.57;;;16.20;99.90;;;;;;7381041;19;20018;-70
2024/03/03 10:15:48;;;;;;;14.15;12.57;;;17.00;99.90;;;;;;7381674;19;20037;-70
2024/03/03 10:18:16;;;;;;;15.17;11.83;;;18.00;99.90;;;;;;7384660;19;20022;-70
2024/03/03 10:21:02;;;;;;;13.35;11.30;;;18.90;99.90;;;;;;7381452;19;20134;-70
2024/03/03 10:23:31;;;;;;;14.38;11.52;;;19.20;99.80;;;;;;7381961;19;21321;-70
2024/03/03 10:25:58;;;;;;;13.35;11.95;;;19.40;98.30;;;;;;7381318;19;20018;-70
2024/03/03 10:29:03;;;;;;;12.80;11.05;;;19.90;98.60;;;;;;7381277;19;20019;-69
2024/03/03 10:31:30;;;;;;;13.15;10.30;;;20.00;94.80;;;;;;7384649;19;20018;-70
2024/03/03 10:33:58;;;;;;;13.30;10.82;;;20.20;95.40;;;;;;7384795;19;20018;-69
2024/03/03 10:36:24;;;;;;;12.82;10.50;;;20.60;95.30;;;;;;7385659;19;20022;-70
2024/03/03 10:38:53;;;;;;;14.50;12.13;;;20.10;94.50;;;;;;7382498;19;20043;-70
2024/03/03 10:41:39;;;;;;;14.90;13.32;;;19.50;93.90;;;;;;7373796;19;20022;-65
2024/03/03 10:44:09;;;;;;;14.43;12.93;;;19.20;95.00;;;;;;7376729;19;20039;-65
2024/03/03 10:46:38;;;;;;;14.13;11.55;;;19.70;94.70;;;;;;7374224;19;20408;-65
2024/03/03 10:49:13;;;;;;;12.60;11.25;;;19.80;94.50;;;;;;7375395;19;20023;-65
2024/03/03 10:51:39;;;;;;;14.10;12.23;;;20.00;93.80;;;;;;7375501;19;20019;-64
2024/03/03 10:54:08;;;;;;;13.10;11.80;;;20.30;94.20;;;;;;7373554;19;20033;-65
2024/03/03 10:56:55;;;;;;;12.88;11.55;;;20.40;94.00;;;;;;7372703;19;20061;-68
2024/03/03 10:59:22;;;;;;;14.55;12.63;;;20.40;93.70;;;;;;7381294;19;20018;-69
2024/03/03 11:01:50;;;;;;;15.07;11.85;;;19.70;93.50;;;;;;7386121;19;20051;-70
2024/03/03 11:04:31;;;;;;;14.27;12.73;;;19.20;93.60;;;;;;7375429;19;20030;-65
2024/03/03 11:07:09;;;;;;;13.23;11.93;;;19.50;94.20;;;;;;7377167;19;20025;-70
2024/03/03 11:09:35;;;;;;;13.68;12.20;;;20.20;94.20;;;;;;7382966;19;20030;-70
2024/03/03 11:12:05;;;;;;;14.43;12.73;;;20.30;93.70;;;;;;7383736;19;20025;-70
2024/03/03 11:14:42;;;;;;;15.50;13.05;;;19.70;93.30;;;;;;7386476;19;20022;-69
2024/03/03 11:17:32;;;;;;;13.95;12.52;;;19.60;93.60;;;;;;7382747;19;20042;-70
2024/03/03 11:20:03;;;;;;;14.20;12.70;;;18.60;94.80;;;;;;7388861;19;20019;-71
2024/03/03 11:22:35;;;;;;;14.77;12.43;;;18.00;94.70;;;;;;7385912;19;20073;-71
2024/03/03 11:25:25;;;;;;;14.85;12.45;;;18.50;95.60;;;;;;7380896;19;20712;-69
2024/03/03 11:27:56;;;;;;;14.63;12.70;;;18.30;95.70;;;;;;7384189;19;20046;-69
2024/03/03 11:30:26;;;;;;;14.40;12.07;;;18.30;95.80;;;;;;7389460;19;20466;-69
2024/03/03 11:32:55;;;;;;;;;;;18.40;95.70;;;;;;7383018;19;20031;-70
2024/03/03 11:35:21;;;;;;;15.40;13.05;;;18.30;95.80;;;;;;7389240;19;19920;-70
2024/03/03 11:38:08;;;;;;;15.30;12.27;;;18.50;96.60;;;;;;7386438;19;20018;-69
2024/03/03 11:40:40;;;;;;;15.75;13.48;;;19.00;95.70;;;;;;7388862;19;20038;-70
2024/03/03 11:43:10;;;;;;;14.55;11.82;;;20.00;94.90;;;;;;7385733;19;20320;-70
2024/03/03 11:45:48;;;;;;;15.18;12.98;;;21.00;93.10;;;;;;7386697;19;20034;-70
2024/03/03 11:48:17;;;;;;;13.45;12.13;;;21.70;92.70;;;;;;7389391;19;20023;-69
2024/03/03 11:50:44;;;;;;;15.90;12.77;;;22.30;92.00;;;;;;7384469;19;20022;-63
2024/03/03 11:53:30;;;;;;;14.75;12.38;;;22.10;91.10;;;;;;7372013;19;20030;-68
2024/03/03 11:56:19;;;;;;;12.82;11.45;;;22.10;91.10;;;;;;7372192;19;20022;-67
2024/03/03 11:58:47;;;;;;;13.68;12.27;;;21.80;90.60;;;;;;7378264;19;20010;-63
2024/03/03 12:01:21;;;;;;;17.25;15.48;;;22.50;90.10;;;;;;7378258;19;20026;-67
2024/03/03 12:03:49;;;;;;;14.93;12.45;;;23.10;88.00;;;;;;7387180;19;20015;-68
2024/03/03 12:06:19;;;;;;;15.15;13.55;;;22.60;87.30;;;;;;7382189;19;20367;-68
2024/03/03 12:08:52;;;;;;;14.48;12.82;;;22.60;89.80;;;;;;7383705;19;20019;-68
2024/03/03 12:11:19;;;;;;;18.38;16.38;;;22.40;89.20;;;;;;7386575;19;20018;-68
2024/03/03 12:13:46;;;;;;;25.65;22.98;;;22.10;89.70;;;;;;7382731;19;20051;-68
2024/03/03 12:16:32;;;;;;;20.92;18.77;;;21.90;90.30;;;;;;7381594;19;20023;-68
2024/03/03 12:19:00;;;;;;;16.98;13.88;;;21.60;90.50;;;;;;7387544;19;20242;-68
2024/03/03 12:21:27;;;;;;;39.65;35.75;;;21.40;90.70;;;;;;7379367;19;20029;-68
2024/03/03 12:24:15;;;;;;;15.27;13.45;;;21.00;90.80;;;;;;7384194;19;20026;-68
2024/03/03 12:26:42;;;;;;;17.38;15.63;;;20.90;91.00;;;;;;7382716;19;20029;-68
2024/03/03 12:29:10;;;;;;;15.25;12.60;;;21.10;91.10;;;;;;7378610;19;20749;-67
2024/03/03 12:31:37;;;;;;;14.27;12.75;;;20.80;90.70;;;;;;7385260;19;20022;-67
2024/03/03 12:34:03;;;;;;;23.58;20.42;;;20.30;91.00;;;;;;7384222;19;20637;-68
2024/03/03 12:36:50;;;;;;;35.70;32.03;;;20.40;91.90;;;;;;7380766;19;20026;-68
2024/03/03 12:39:16;;;;;;;51.92;45.72;;;20.30;91.60;;;;;;7381139;19;20044;-64
2024/03/03 12:41:46;;;;;;;18.67;16.73;;;20.50;92.00;;;;;;7364451;19;20793;-63
2024/03/03 12:44:21;;;;;;;51.40;46.00;;;20.00;91.40;;;;;;7380688;19;20770;-68
2024/03/03 12:46:50;;;;;;;41.08;36.83;;;20.30;92.00;;;;;;7380845;19;20511;-68
2024/03/03 12:49:18;;;;;;;14.18;12.68;;;20.10;91.70;;;;;;7377078;19;20543;-67
2024/03/03 12:51:45;;;;;;;23.85;21.42;;;20.30;92.00;;;;;;7378459;19;20355;-69
2024/03/03 12:54:12;;;;;;;17.40;15.43;;;20.80;91.70;;;;;;7383014;19;20026;-70
2024/03/03 12:56:42;;;;;;;14.65;13.07;;;21.40;91.90;;;;;;7383877;19;20074;-69
2024/03/03 12:59:08;;;;;;;55.35;49.70;;;21.50;90.80;;;;;;7383520;19;20030;-69